sensor_id;sensor_type;location;lat;lon;timestamp;pressure;altitude;pressure_sealevel;temperature;humidity
40788;BME280;26497;52.494;7.546;2023-06-26T00:00:40;100648.28;;;24.95;65.44
40788;BME280;26497;52.494;7.546;2023-06-26T00:03:07;100650.00;;;24.96;65.34
40788;BME280;26497;52.494;7.546;2023-06-26T00:05:34;100645.69;;;24.94;65.34
40788;BME280;26497;52.494;7.546;2023-06-26T00:08:01;100645.69;;;24.94;65.46
40788;BME280;26497;52.494;7.546;2023-06-26T00:10:29;100638.44;;;24.94;65.11
40788;BME280;26497;52.494;7.546;2023-06-26T00:12:56;100651.66;;;24.99;65.30
40788;BME280;26497;52.494;7.546;2023-06-26T00:15:25;100646.06;;;24.87;65.85
40788;BME280;26497;52.494;7.546;2023-06-26T00:17:55;100635.72;;;24.80;65.94
40788;BME280;26497;52.494;7.546;2023-06-26T00:20:22;100636.03;;;24.75;65.79
40788;BME280;26497;52.494;7.546;2023-06-26T00:22:50;100628.78;;;24.76;65.90
40788;BME280;26497;52.494;7.546;2023-06-26T00:25:19;100627.16;;;24.73;65.97
40788;BME280;26497;52.494;7.546;2023-06-26T00:27:47;100622.78;;;24.70;65.92
40788;BME280;26497;52.494;7.546;2023-06-26T00:30:14;100628.16;;;24.70;66.08
40788;BME280;26497;52.494;7.546;2023-06-26T00:32:43;100621.75;;;24.73;66.10
40788;BME280;26497;52.494;7.546;2023-06-26T00:35:10;100614.59;;;24.72;66.10
40788;BME280;26497;52.494;7.546;2023-06-26T00:37:38;100610.44;;;24.66;66.34
40788;BME280;26497;52.494;7.546;2023-06-26T00:40:09;100614.19;;;24.64;66.63
40788;BME280;26497;52.494;7.546;2023-06-26T00:42:36;100617.75;;;24.64;66.75
40788;BME280;26497;52.494;7.546;2023-06-26T00:45:04;100606.28;;;24.61;66.83
40788;BME280;26497;52.494;7.546;2023-06-26T00:47:32;100603.84;;;24.56;67.04
40788;BME280;26497;52.494;7.546;2023-06-26T00:50:01;100601.09;;;24.57;66.96
40788;BME280;26497;52.494;7.546;2023-06-26T00:52:28;100605.00;;;24.52;67.28
40788;BME280;26497;52.494;7.546;2023-06-26T00:54:56;100601.66;;;24.48;67.36
40788;BME280;26497;52.494;7.546;2023-06-26T00:57:46;100597.50;;;24.42;67.52
40788;BME280;26497;52.494;7.546;2023-06-26T01:00:20;100590.63;;;24.37;67.54
40788;BME280;26497;52.494;7.546;2023-06-26T01:02:48;100584.84;;;24.28;67.71
40788;BME280;26497;52.494;7.546;2023-06-26T01:05:17;100586.94;;;24.23;67.65
40788;BME280;26497;52.494;7.546;2023-06-26T01:07:47;100585.72;;;24.29;67.55
40788;BME280;26497;52.494;7.546;2023-06-26T01:10:15;100575.31;;;24.23;67.54
40788;BME280;26497;52.494;7.546;2023-06-26T01:12:42;100579.91;;;24.21;67.88
40788;BME280;26497;52.494;7.546;2023-06-26T01:15:10;100570.88;;;24.22;68.06
40788;BME280;26497;52.494;7.546;2023-06-26T01:17:39;100568.38;;;24.19;68.34
40788;BME280;26497;52.494;7.546;2023-06-26T01:20:11;100567.59;;;24.17;68.18
40788;BME280;26497;52.494;7.546;2023-06-26T01:22:56;100562.19;;;24.17;68.41
40788;BME280;26497;52.494;7.546;2023-06-26T01:25:33;100558.97;;;24.10;68.68
40788;BME280;26497;52.494;7.546;2023-06-26T01:28:06;100550.06;;;24.09;68.59
40788;BME280;26497;52.494;7.546;2023-06-26T01:30:42;100549.63;;;24.01;69.02
40788;BME280;26497;52.494;7.546;2023-06-26T01:33:10;100538.47;;;23.91;69.10
40788;BME280;26497;52.494;7.546;2023-06-26T01:35:38;100535.72;;;23.93;69.15
40788;BME280;26497;52.494;7.546;2023-06-26T01:38:13;100531.88;;;23.97;69.06
40788;BME280;26497;52.494;7.546;2023-06-26T01:40:41;100537.69;;;23.89;69.39
40788;BME280;26497;52.494;7.546;2023-06-26T01:43:18;100538.16;;;23.81;69.82
40788;BME280;26497;52.494;7.546;2023-06-26T01:45:49;100534.81;;;23.78;69.56
40788;BME280;26497;52.494;7.546;2023-06-26T01:48:23;100530.63;;;23.72;69.80
40788;BME280;26497;52.494;7.546;2023-06-26T01:50:51;100522.03;;;23.65;69.97
40788;BME280;26497;52.494;7.546;2023-06-26T01:53:24;100519.44;;;23.64;69.82
40788;BME280;26497;52.494;7.546;2023-06-26T01:55:58;100525.88;;;23.61;70.08
40788;BME280;26497;52.494;7.546;2023-06-26T01:58:28;100527.69;;;23.61;70.04
40788;BME280;26497;52.494;7.546;2023-06-26T02:00:56;100526.03;;;23.58;69.99
40788;BME280;26497;52.494;7.546;2023-06-26T02:03:23;100522.22;;;23.46;70.32
40788;BME280;26497;52.494;7.546;2023-06-26T02:05:51;100525.00;;;23.45;70.55
40788;BME280;26497;52.494;7.546;2023-06-26T02:08:18;100525.44;;;23.53;70.37
40788;BME280;26497;52.494;7.546;2023-06-26T02:10:46;100518.31;;;23.52;70.20
40788;BME280;26497;52.494;7.546;2023-06-26T02:13:13;100519.81;;;23.41;70.47
40788;BME280;26497;52.494;7.546;2023-06-26T02:15:42;100520.31;;;23.32;70.87
40788;BME280;26497;52.494;7.546;2023-06-26T02:18:09;100513.97;;;23.33;70.63
40788;BME280;26497;52.494;7.546;2023-06-26T02:20:36;100511.53;;;23.29;70.88
40788;BME280;26497;52.494;7.546;2023-06-26T02:23:06;100513.75;;;23.20;70.90
40788;BME280;26497;52.494;7.546;2023-06-26T02:25:36;100524.88;;;23.14;71.26
40788;BME280;26497;52.494;7.546;2023-06-26T02:28:03;100517.00;;;23.11;71.53
40788;BME280;26497;52.494;7.546;2023-06-26T02:30:33;100514.13;;;23.14;71.29
40788;BME280;26497;52.494;7.546;2023-06-26T02:33:02;100515.25;;;23.10;71.32
40788;BME280;26497;52.494;7.546;2023-06-26T02:35:29;100512.63;;;23.08;71.62
40788;BME280;26497;52.494;7.546;2023-06-26T02:37:58;100513.25;;;23.13;71.20
40788;BME280;26497;52.494;7.546;2023-06-26T02:40:26;100514.91;;;23.16;70.92
40788;BME280;26497;52.494;7.546;2023-06-26T02:42:53;100515.69;;;23.18;71.32
40788;BME280;26497;52.494;7.546;2023-06-26T02:45:20;100504.94;;;23.18;71.32
40788;BME280;26497;52.494;7.546;2023-06-26T02:47:47;100506.75;;;23.18;71.13
40788;BME280;26497;52.494;7.546;2023-06-26T02:50:16;100512.63;;;23.08;71.54
40788;BME280;26497;52.494;7.546;2023-06-26T02:52:43;100500.31;;;23.04;71.72
40788;BME280;26497;52.494;7.546;2023-06-26T02:55:13;100510.22;;;23.04;71.76
40788;BME280;26497;52.494;7.546;2023-06-26T02:57:41;100511.16;;;23.03;71.59
40788;BME280;26497;52.494;7.546;2023-06-26T03:00:10;100505.44;;;23.09;71.56
40788;BME280;26497;52.494;7.546;2023-06-26T03:02:37;100505.63;;;23.06;71.72
40788;BME280;26497;52.494;7.546;2023-06-26T03:05:05;100505.69;;;23.04;72.01
40788;BME280;26497;52.494;7.546;2023-06-26T03:07:34;100501.97;;;23.07;71.76
40788;BME280;26497;52.494;7.546;2023-06-26T03:10:01;100508.13;;;23.09;71.63
40788;BME280;26497;52.494;7.546;2023-06-26T03:12:28;100500.25;;;23.06;71.99
40788;BME280;26497;52.494;7.546;2023-06-26T03:14:55;100497.44;;;23.07;71.96
40788;BME280;26497;52.494;7.546;2023-06-26T03:17:23;100493.56;;;23.13;71.99
40788;BME280;26497;52.494;7.546;2023-06-26T03:19:50;100492.69;;;23.12;71.87
40788;BME280;26497;52.494;7.546;2023-06-26T03:22:17;100495.47;;;23.11;71.93
40788;BME280;26497;52.494;7.546;2023-06-26T03:24:46;100493.19;;;23.19;72.23
40788;BME280;26497;52.494;7.546;2023-06-26T03:27:13;100489.41;;;23.23;71.70
40788;BME280;26497;52.494;7.546;2023-06-26T03:29:41;100490.13;;;23.27;71.82
40788;BME280;26497;52.494;7.546;2023-06-26T03:32:09;100494.09;;;23.36;71.63
40788;BME280;26497;52.494;7.546;2023-06-26T03:34:39;100486.63;;;23.41;71.32
40788;BME280;26497;52.494;7.546;2023-06-26T03:37:06;100484.91;;;23.40;71.57
40788;BME280;26497;52.494;7.546;2023-06-26T03:39:34;100486.44;;;23.44;71.54
40788;BME280;26497;52.494;7.546;2023-06-26T03:42:03;100486.97;;;23.35;72.12
40788;BME280;26497;52.494;7.546;2023-06-26T03:44:30;100494.25;;;23.33;72.74
40788;BME280;26497;52.494;7.546;2023-06-26T03:46:58;100496.78;;;23.36;72.62
40788;BME280;26497;52.494;7.546;2023-06-26T03:49:25;100493.56;;;23.45;72.35
40788;BME280;26497;52.494;7.546;2023-06-26T03:52:20;100495.31;;;23.46;72.29
40788;BME280;26497;52.494;7.546;2023-06-26T03:55:36;100508.94;;;23.43;72.54
40788;BME280;26497;52.494;7.546;2023-06-26T04:02:21;100496.97;;;23.49;73.07
40788;BME280;26497;52.494;7.546;2023-06-26T04:05:07;100504.75;;;23.53;73.17
40788;BME280;26497;52.494;7.546;2023-06-26T04:07:37;100495.91;;;23.67;72.89
40788;BME280;26497;52.494;7.546;2023-06-26T04:10:06;100503.09;;;23.83;72.52
40788;BME280;26497;52.494;7.546;2023-06-26T04:12:36;100503.56;;;24.06;71.96
40788;BME280;26497;52.494;7.546;2023-06-26T04:15:06;100508.56;;;24.12;71.12
40788;BME280;26497;52.494;7.546;2023-06-26T04:17:36;100502.38;;;24.26;69.70
40788;BME280;26497;52.494;7.546;2023-06-26T04:20:08;100500.00;;;24.50;68.52
40788;BME280;26497;52.494;7.546;2023-06-26T04:22:35;100503.38;;;24.68;66.79
40788;BME280;26497;52.494;7.546;2023-06-26T04:25:06;100499.75;;;24.98;65.53
40788;BME280;26497;52.494;7.546;2023-06-26T04:27:38;100498.22;;;25.51;63.63
40788;BME280;26497;52.494;7.546;2023-06-26T04:30:09;100503.56;;;26.46;61.02
40788;BME280;26497;52.494;7.546;2023-06-26T04:32:38;100508.78;;;27.62;57.58
40788;BME280;26497;52.494;7.546;2023-06-26T04:35:06;100513.03;;;28.38;52.92
40788;BME280;26497;52.494;7.546;2023-06-26T04:37:33;100520.13;;;29.09;49.78
40788;BME280;26497;52.494;7.546;2023-06-26T04:40:09;100513.78;;;29.54;48.37
40788;BME280;26497;52.494;7.546;2023-06-26T04:42:38;100507.53;;;30.07;48.08
40788;BME280;26497;52.494;7.546;2023-06-26T04:45:07;100506.22;;;30.44;45.26
40788;BME280;26497;52.494;7.546;2023-06-26T04:47:38;100511.63;;;30.96;44.69
40788;BME280;26497;52.494;7.546;2023-06-26T04:50:06;100509.94;;;31.46;43.31
40788;BME280;26497;52.494;7.546;2023-06-26T04:52:35;100515.44;;;31.85;42.90
40788;BME280;26497;52.494;7.546;2023-06-26T04:55:03;100515.31;;;32.06;41.26
40788;BME280;26497;52.494;7.546;2023-06-26T04:57:30;100507.41;;;32.23;40.29
40788;BME280;26497;52.494;7.546;2023-06-26T04:59:57;100514.97;;;32.49;40.65
40788;BME280;26497;52.494;7.546;2023-06-26T05:02:26;100509.44;;;32.69;39.36
40788;BME280;26497;52.494;7.546;2023-06-26T05:04:53;100506.88;;;33.05;39.15
40788;BME280;26497;52.494;7.546;2023-06-26T05:08:21;100499.81;;;33.30;37.64
40788;BME280;26497;52.494;7.546;2023-06-26T05:10:49;100501.53;;;33.31;38.13
40788;BME280;26497;52.494;7.546;2023-06-26T05:14:06;100505.81;;;33.44;37.64
40788;BME280;26497;52.494;7.546;2023-06-26T05:16:35;100500.69;;;33.77;37.65
40788;BME280;26497;52.494;7.546;2023-06-26T05:19:04;100501.22;;;33.80;36.76
40788;BME280;26497;52.494;7.546;2023-06-26T05:21:34;100515.94;;;33.97;36.82
40788;BME280;26497;52.494;7.546;2023-06-26T05:24:05;100503.16;;;34.24;36.83
40788;BME280;26497;52.494;7.546;2023-06-26T05:26:36;100508.78;;;34.23;35.18
40788;BME280;26497;52.494;7.546;2023-06-26T05:29:04;100510.31;;;33.07;37.68
40788;BME280;26497;52.494;7.546;2023-06-26T05:31:40;100512.88;;;32.03;39.97
40788;BME280;26497;52.494;7.546;2023-06-26T05:34:11;100508.69;;;31.89;40.43
40788;BME280;26497;52.494;7.546;2023-06-26T05:36:43;100517.44;;;32.42;40.13
40788;BME280;26497;52.494;7.546;2023-06-26T05:39:12;100509.81;;;32.93;38.92
40788;BME280;26497;52.494;7.546;2023-06-26T05:41:52;100521.06;;;33.46;38.02
40788;BME280;26497;52.494;7.546;2023-06-26T05:44:20;100528.56;;;33.44;37.80
40788;BME280;26497;52.494;7.546;2023-06-26T05:46:47;100525.91;;;33.52;37.72
40788;BME280;26497;52.494;7.546;2023-06-26T05:49:16;100518.97;;;34.13;36.50
40788;BME280;26497;52.494;7.546;2023-06-26T05:51:52;100515.22;;;34.58;35.96
40788;BME280;26497;52.494;7.546;2023-06-26T05:54:20;100518.09;;;34.57;35.38
40788;BME280;26497;52.494;7.546;2023-06-26T05:56:51;100525.13;;;35.28;35.53
40788;BME280;26497;52.494;7.546;2023-06-26T05:59:20;100541.38;;;35.73;33.89
40788;BME280;26497;52.494;7.546;2023-06-26T06:01:50;100540.41;;;36.24;32.99
40788;BME280;26497;52.494;7.546;2023-06-26T06:04:19;100541.25;;;36.08;32.38
40788;BME280;26497;52.494;7.546;2023-06-26T06:06:46;100528.69;;;35.72;33.11
40788;BME280;26497;52.494;7.546;2023-06-26T06:09:20;100531.66;;;36.04;32.75
40788;BME280;26497;52.494;7.546;2023-06-26T06:11:50;100526.59;;;36.73;32.19
40788;BME280;26497;52.494;7.546;2023-06-26T06:14:17;100524.06;;;37.43;30.55
40788;BME280;26497;52.494;7.546;2023-06-26T06:16:47;100524.44;;;37.40;30.92
40788;BME280;26497;52.494;7.546;2023-06-26T06:19:15;100539.88;;;36.28;32.02
40788;BME280;26497;52.494;7.546;2023-06-26T06:21:44;100546.03;;;35.29;33.40
40788;BME280;26497;52.494;7.546;2023-06-26T06:24:11;100560.09;;;34.65;35.26
40788;BME280;26497;52.494;7.546;2023-06-26T06:26:42;100553.69;;;34.12;35.35
40788;BME280;26497;52.494;7.546;2023-06-26T06:29:09;100563.28;;;33.98;35.94
40788;BME280;26497;52.494;7.546;2023-06-26T06:31:44;100566.50;;;33.37;37.08
40788;BME280;26497;52.494;7.546;2023-06-26T06:34:13;100571.78;;;33.95;36.17
40788;BME280;26497;52.494;7.546;2023-06-26T06:36:45;100581.72;;;34.77;34.37
40788;BME280;26497;52.494;7.546;2023-06-26T06:39:12;100579.81;;;34.51;34.98
40788;BME280;26497;52.494;7.546;2023-06-26T06:41:42;100600.31;;;34.10;36.06
40788;BME280;26497;52.494;7.546;2023-06-26T06:44:18;100620.94;;;32.73;38.12
40788;BME280;26497;52.494;7.546;2023-06-26T06:46:45;100622.59;;;31.35;41.36
40788;BME280;26497;52.494;7.546;2023-06-26T06:49:13;100597.78;;;30.01;46.23
40788;BME280;26497;52.494;7.546;2023-06-26T06:51:40;100616.41;;;28.09;56.68
40788;BME280;26497;52.494;7.546;2023-06-26T06:54:09;100643.47;;;26.83;62.43
40788;BME280;26497;52.494;7.546;2023-06-26T06:56:42;100650.50;;;26.17;66.21
40788;BME280;26497;52.494;7.546;2023-06-26T06:59:10;100650.50;;;25.32;70.54
40788;BME280;26497;52.494;7.546;2023-06-26T07:01:39;100658.84;;;24.84;72.98
40788;BME280;26497;52.494;7.546;2023-06-26T07:04:07;100658.97;;;24.66;75.24
40788;BME280;26497;52.494;7.546;2023-06-26T07:06:34;100659.53;;;24.87;75.54
40788;BME280;26497;52.494;7.546;2023-06-26T07:09:01;100665.44;;;25.09;75.96
40788;BME280;26497;52.494;7.546;2023-06-26T07:11:30;100668.16;;;25.23;75.22
40788;BME280;26497;52.494;7.546;2023-06-26T07:13:59;100678.88;;;25.68;75.63
40788;BME280;26497;52.494;7.546;2023-06-26T07:16:26;100659.75;;;26.13;74.42
40788;BME280;26497;52.494;7.546;2023-06-26T07:18:53;100667.44;;;26.74;71.26
40788;BME280;26497;52.494;7.546;2023-06-26T07:21:21;100683.53;;;27.16;69.55
40788;BME280;26497;52.494;7.546;2023-06-26T07:23:48;100685.13;;;27.45;67.07
40788;BME280;26497;52.494;7.546;2023-06-26T07:26:16;100691.53;;;27.31;66.48
40788;BME280;26497;52.494;7.546;2023-06-26T07:28:44;100690.09;;;27.77;65.43
40788;BME280;26497;52.494;7.546;2023-06-26T07:31:11;100695.44;;;27.78;65.13
40788;BME280;26497;52.494;7.546;2023-06-26T07:33:39;100695.50;;;28.27;65.33
40788;BME280;26497;52.494;7.546;2023-06-26T07:36:06;100706.56;;;28.73;63.45
40788;BME280;26497;52.494;7.546;2023-06-26T07:38:33;100695.81;;;28.95;62.74
40788;BME280;26497;52.494;7.546;2023-06-26T07:41:00;100693.00;;;29.20;61.24
40788;BME280;26497;52.494;7.546;2023-06-26T07:43:28;100696.38;;;29.46;60.21
40788;BME280;26497;52.494;7.546;2023-06-26T07:45:56;100698.84;;;29.83;60.15
40788;BME280;26497;52.494;7.546;2023-06-26T07:48:24;100703.91;;;29.99;59.06
40788;BME280;26497;52.494;7.546;2023-06-26T07:50:54;100689.78;;;30.50;57.42
40788;BME280;26497;52.494;7.546;2023-06-26T07:53:21;100690.13;;;31.10;53.86
40788;BME280;26497;52.494;7.546;2023-06-26T07:55:49;100693.44;;;32.17;52.22
40788;BME280;26497;52.494;7.546;2023-06-26T07:58:16;100695.75;;;33.86;49.36
40788;BME280;26497;52.494;7.546;2023-06-26T08:00:44;100686.13;;;35.26;43.70
40788;BME280;26497;52.494;7.546;2023-06-26T08:03:12;100701.25;;;36.08;39.38
40788;BME280;26497;52.494;7.546;2023-06-26T08:05:43;100711.66;;;36.64;38.16
40788;BME280;26497;52.494;7.546;2023-06-26T08:08:10;100707.53;;;36.93;36.25
40788;BME280;26497;52.494;7.546;2023-06-26T08:10:37;100716.72;;;37.42;35.56
40788;BME280;26497;52.494;7.546;2023-06-26T08:13:06;100719.78;;;37.64;32.83
40788;BME280;26497;52.494;7.546;2023-06-26T08:15:33;100709.38;;;36.35;34.62
40788;BME280;26497;52.494;7.546;2023-06-26T08:18:01;100708.34;;;35.84;35.27
40788;BME280;26497;52.494;7.546;2023-06-26T08:20:29;100717.66;;;36.76;35.58
40788;BME280;26497;52.494;7.546;2023-06-26T08:22:56;100727.31;;;37.05;35.10
40788;BME280;26497;52.494;7.546;2023-06-26T08:25:24;100720.88;;;37.46;35.13
40788;BME280;26497;52.494;7.546;2023-06-26T08:27:51;100717.91;;;37.56;34.91
40788;BME280;26497;52.494;7.546;2023-06-26T08:30:20;100726.03;;;37.32;34.61
40788;BME280;26497;52.494;7.546;2023-06-26T08:32:47;100719.38;;;36.77;34.55
40788;BME280;26497;52.494;7.546;2023-06-26T08:35:14;100720.44;;;37.01;33.94
40788;BME280;26497;52.494;7.546;2023-06-26T08:37:43;100731.41;;;37.09;32.97
40788;BME280;26497;52.494;7.546;2023-06-26T08:40:11;100738.44;;;36.79;31.53
40788;BME280;26497;52.494;7.546;2023-06-26T08:42:41;100734.28;;;36.50;31.46
40788;BME280;26497;52.494;7.546;2023-06-26T08:45:09;100740.00;;;36.73;33.45
40788;BME280;26497;52.494;7.546;2023-06-26T08:47:38;100738.00;;;37.65;31.48
40788;BME280;26497;52.494;7.546;2023-06-26T08:50:10;100732.00;;;38.32;30.09
40788;BME280;26497;52.494;7.546;2023-06-26T08:52:44;100740.56;;;38.84;28.38
40788;BME280;26497;52.494;7.546;2023-06-26T08:55:15;100743.03;;;39.02;28.30
40788;BME280;26497;52.494;7.546;2023-06-26T08:57:43;100753.19;;;39.40;28.25
40788;BME280;26497;52.494;7.546;2023-06-26T09:00:12;100757.72;;;40.08;26.57
40788;BME280;26497;52.494;7.546;2023-06-26T09:02:41;100758.84;;;40.29;24.85
40788;BME280;26497;52.494;7.546;2023-06-26T09:05:08;100753.19;;;39.70;24.78
40788;BME280;26497;52.494;7.546;2023-06-26T09:07:36;100761.56;;;39.62;23.97
40788;BME280;26497;52.494;7.546;2023-06-26T09:10:05;100765.59;;;39.21;25.23
40788;BME280;26497;52.494;7.546;2023-06-26T09:12:36;100761.09;;;39.88;25.64
40788;BME280;26497;52.494;7.546;2023-06-26T09:15:05;100768.94;;;40.21;24.01
40788;BME280;26497;52.494;7.546;2023-06-26T09:17:38;100773.25;;;40.09;24.30
40788;BME280;26497;52.494;7.546;2023-06-26T09:20:07;100779.31;;;38.91;26.24
40788;BME280;26497;52.494;7.546;2023-06-26T09:22:37;100781.25;;;39.74;25.82
40788;BME280;26497;52.494;7.546;2023-06-26T09:25:08;100785.16;;;40.24;25.58
40788;BME280;26497;52.494;7.546;2023-06-26T09:27:36;100789.84;;;39.79;25.21
40788;BME280;26497;52.494;7.546;2023-06-26T09:30:06;100800.81;;;38.01;26.05
40788;BME280;26497;52.494;7.546;2023-06-26T09:32:37;100786.22;;;35.92;28.75
40788;BME280;26497;52.494;7.546;2023-06-26T09:35:08;100796.28;;;35.04;30.96
40788;BME280;26497;52.494;7.546;2023-06-26T09:37:38;100793.63;;;35.65;29.36
40788;BME280;26497;52.494;7.546;2023-06-26T09:40:09;100790.22;;;36.40;27.96
40788;BME280;26497;52.494;7.546;2023-06-26T09:42:36;100795.72;;;36.49;28.69
40788;BME280;26497;52.494;7.546;2023-06-26T09:45:05;100804.75;;;37.50;28.80
40788;BME280;26497;52.494;7.546;2023-06-26T09:47:37;100802.50;;;38.73;24.97
40788;BME280;26497;52.494;7.546;2023-06-26T09:50:21;100798.94;;;39.64;24.90
40788;BME280;26497;52.494;7.546;2023-06-26T09:52:51;100802.94;;;40.37;24.85
40788;BME280;26497;52.494;7.546;2023-06-26T09:55:26;100804.72;;;39.40;23.95
40788;BME280;26497;52.494;7.546;2023-06-26T09:58:00;100814.84;;;38.54;25.38
40788;BME280;26497;52.494;7.546;2023-06-26T10:00:29;100812.63;;;37.45;26.84
40788;BME280;26497;52.494;7.546;2023-06-26T10:03:01;100817.81;;;37.48;28.15
40788;BME280;26497;52.494;7.546;2023-06-26T10:05:34;100818.72;;;37.80;27.39
40788;BME280;26497;52.494;7.546;2023-06-26T10:08:05;100824.31;;;36.97;27.49
40788;BME280;26497;52.494;7.546;2023-06-26T10:10:36;100821.72;;;35.40;27.45
40788;BME280;26497;52.494;7.546;2023-06-26T10:13:09;100828.50;;;34.18;29.54
40788;BME280;26497;52.494;7.546;2023-06-26T10:15:38;100836.44;;;33.73;31.97
40788;BME280;26497;52.494;7.546;2023-06-26T10:18:07;100826.84;;;34.81;30.91
40788;BME280;26497;52.494;7.546;2023-06-26T10:20:35;100824.97;;;35.89;29.14
40788;BME280;26497;52.494;7.546;2023-06-26T10:23:06;100835.25;;;36.21;26.90
40788;BME280;26497;52.494;7.546;2023-06-26T10:25:38;100846.09;;;35.25;26.87
40788;BME280;26497;52.494;7.546;2023-06-26T10:28:08;100818.94;;;35.58;28.91
40788;BME280;26497;52.494;7.546;2023-06-26T10:30:39;100825.09;;;36.56;28.14
40788;BME280;26497;52.494;7.546;2023-06-26T10:33:07;100832.31;;;36.57;27.09
40788;BME280;26497;52.494;7.546;2023-06-26T10:35:42;100834.59;;;35.93;27.33
40788;BME280;26497;52.494;7.546;2023-06-26T10:38:10;100849.72;;;35.08;27.16
40788;BME280;26497;52.494;7.546;2023-06-26T10:40:44;100841.22;;;34.37;28.54
40788;BME280;26497;52.494;7.546;2023-06-26T10:43:14;100835.81;;;34.73;28.44
40788;BME280;26497;52.494;7.546;2023-06-26T10:45:46;100829.97;;;35.22;28.56
40788;BME280;26497;52.494;7.546;2023-06-26T10:48:18;100829.94;;;36.20;27.20
40788;BME280;26497;52.494;7.546;2023-06-26T10:50:48;100829.13;;;37.37;26.49
40788;BME280;26497;52.494;7.546;2023-06-26T10:53:21;100837.75;;;38.55;24.81
40788;BME280;26497;52.494;7.546;2023-06-26T10:55:57;100841.81;;;39.37;22.73
40788;BME280;26497;52.494;7.546;2023-06-26T10:58:40;100834.59;;;39.13;21.01
40788;BME280;26497;52.494;7.546;2023-06-26T11:01:24;100846.09;;;37.82;24.30
40788;BME280;26497;52.494;7.546;2023-06-26T11:04:05;100848.66;;;38.40;25.91
40788;BME280;26497;52.494;7.546;2023-06-26T11:06:34;100845.09;;;38.23;26.18
40788;BME280;26497;52.494;7.546;2023-06-26T11:09:10;100852.16;;;37.60;26.11
40788;BME280;26497;52.494;7.546;2023-06-26T11:11:58;100853.28;;;36.67;27.66
40788;BME280;26497;52.494;7.546;2023-06-26T11:14:31;100856.19;;;36.22;28.14
40788;BME280;26497;52.494;7.546;2023-06-26T11:17:02;100866.94;;;35.89;27.90
40788;BME280;26497;52.494;7.546;2023-06-26T11:19:31;100876.38;;;35.60;27.36
40788;BME280;26497;52.494;7.546;2023-06-26T11:21:59;100865.22;;;36.06;27.22
40788;BME280;26497;52.494;7.546;2023-06-26T11:24:28;100864.41;;;36.65;26.97
40788;BME280;26497;52.494;7.546;2023-06-26T11:27:02;100878.44;;;37.55;25.55
40788;BME280;26497;52.494;7.546;2023-06-26T11:29:33;100877.63;;;38.27;24.34
40788;BME280;26497;52.494;7.546;2023-06-26T11:32:03;100883.88;;;38.13;24.70
40788;BME280;26497;52.494;7.546;2023-06-26T11:34:37;100876.84;;;37.85;25.13
40788;BME280;26497;52.494;7.546;2023-06-26T11:37:04;100884.13;;;37.28;25.87
40788;BME280;26497;52.494;7.546;2023-06-26T11:39:35;100882.50;;;36.33;26.55
40788;BME280;26497;52.494;7.546;2023-06-26T11:42:05;100887.41;;;35.95;27.91
40788;BME280;26497;52.494;7.546;2023-06-26T11:44:40;100885.94;;;35.82;28.75
40788;BME280;26497;52.494;7.546;2023-06-26T11:47:13;100892.13;;;35.40;29.54
40788;BME280;26497;52.494;7.546;2023-06-26T11:49:43;100884.44;;;34.89;29.11
40788;BME280;26497;52.494;7.546;2023-06-26T11:52:10;100893.78;;;34.40;29.11
40788;BME280;26497;52.494;7.546;2023-06-26T11:54:38;100887.75;;;33.79;28.86
40788;BME280;26497;52.494;7.546;2023-06-26T11:57:07;100906.06;;;33.00;28.40
40788;BME280;26497;52.494;7.546;2023-06-26T11:59:38;100912.16;;;32.73;28.93
40788;BME280;26497;52.494;7.546;2023-06-26T12:02:07;100920.97;;;32.35;30.88
40788;BME280;26497;52.494;7.546;2023-06-26T12:04:36;100916.28;;;32.26;32.04
40788;BME280;26497;52.494;7.546;2023-06-26T12:07:07;100919.88;;;33.08;29.74
40788;BME280;26497;52.494;7.546;2023-06-26T12:09:41;100923.72;;;33.85;29.03
40788;BME280;26497;52.494;7.546;2023-06-26T12:12:11;100911.56;;;34.64;29.99
40788;BME280;26497;52.494;7.546;2023-06-26T12:14:39;100917.31;;;34.89;28.68
40788;BME280;26497;52.494;7.546;2023-06-26T12:17:10;100920.59;;;34.93;28.54
40788;BME280;26497;52.494;7.546;2023-06-26T12:19:38;100916.81;;;34.76;27.19
40788;BME280;26497;52.494;7.546;2023-06-26T12:22:09;100924.75;;;34.41;28.28
40788;BME280;26497;52.494;7.546;2023-06-26T12:24:38;100924.31;;;33.98;26.61
40788;BME280;26497;52.494;7.546;2023-06-26T12:27:11;100923.66;;;33.47;28.30
40788;BME280;26497;52.494;7.546;2023-06-26T12:29:40;100942.75;;;33.17;29.02
40788;BME280;26497;52.494;7.546;2023-06-26T12:32:09;100944.16;;;33.02;26.49
40788;BME280;26497;52.494;7.546;2023-06-26T12:34:38;100945.47;;;33.27;28.65
40788;BME280;26497;52.494;7.546;2023-06-26T12:37:08;100936.69;;;34.78;26.74
40788;BME280;26497;52.494;7.546;2023-06-26T12:39:47;100940.81;;;35.46;24.77
40788;BME280;26497;52.494;7.546;2023-06-26T12:42:17;100935.81;;;35.23;24.78
40788;BME280;26497;52.494;7.546;2023-06-26T12:44:45;100938.72;;;35.04;24.73
40788;BME280;26497;52.494;7.546;2023-06-26T12:47:14;100938.13;;;35.91;24.07
40788;BME280;26497;52.494;7.546;2023-06-26T12:49:43;100937.53;;;37.01;22.08
40788;BME280;26497;52.494;7.546;2023-06-26T12:52:13;100938.22;;;37.36;21.83
40788;BME280;26497;52.494;7.546;2023-06-26T12:54:42;100927.09;;;37.71;20.67
40788;BME280;26497;52.494;7.546;2023-06-26T12:57:10;100948.25;;;37.95;20.97
40788;BME280;26497;52.494;7.546;2023-06-26T12:59:41;100937.72;;;37.99;20.52
40788;BME280;26497;52.494;7.546;2023-06-26T13:02:09;100942.72;;;37.70;19.93
40788;BME280;26497;52.494;7.546;2023-06-26T13:04:37;100940.78;;;37.04;22.28
40788;BME280;26497;52.494;7.546;2023-06-26T13:07:07;100944.84;;;35.96;22.06
40788;BME280;26497;52.494;7.546;2023-06-26T13:09:37;100939.72;;;35.39;21.90